createdAt,value
2023-04-27T00:01:34.820Z,1.67
2023-04-27T00:04:14.506Z,1.61
2023-04-27T00:06:50.067Z,1.54
2023-04-27T00:09:28.096Z,1.55
2023-04-27T00:12:03.498Z,1.40
2023-04-27T00:14:35.159Z,1.45
2023-04-27T00:17:07.922Z,1.45
2023-04-27T00:19:34.982Z,1.33
2023-04-27T00:22:20.892Z,1.42
2023-04-27T00:24:50.916Z,1.35
2023-04-27T00:27:25.734Z,1.36
2023-04-27T00:29:58.843Z,1.32
2023-04-27T00:32:36.000Z,1.23
2023-04-27T00:35:15.594Z,1.21
2023-04-27T00:37:54.205Z,1.07
2023-04-27T00:40:35.029Z,1.14
2023-04-27T00:43:04.170Z,1.06
2023-04-27T00:45:43.650Z,1.11
2023-04-27T00:48:16.397Z,1.09
2023-04-27T00:50:54.108Z,1.01
2023-04-27T00:53:31.587Z,0.96
2023-04-27T00:56:21.887Z,0.93
2023-04-27T00:59:03.021Z,0.93
2023-04-27T01:01:43.892Z,0.97
2023-04-27T01:04:23.286Z,0.94
2023-04-27T01:06:57.143Z,0.83
2023-04-27T01:09:32.642Z,0.79
2023-04-27T01:12:12.882Z,0.81
2023-04-27T01:14:46.008Z,0.78
2023-04-27T01:17:22.114Z,0.79
2023-04-27T01:20:02.431Z,0.77
2023-04-27T01:22:39.946Z,0.75
2023-04-27T01:25:12.860Z,0.71
2023-04-27T01:27:56.541Z,0.67
2023-04-27T01:30:30.863Z,0.67
2023-04-27T01:33:04.650Z,0.70
2023-04-27T01:35:46.921Z,0.64
2023-04-27T01:38:22.395Z,0.69
2023-04-27T01:40:50.061Z,0.54
2023-04-27T01:43:28.858Z,0.58
2023-04-27T01:46:05.070Z,0.50
2023-04-27T01:48:45.978Z,0.51
2023-04-27T01:51:16.285Z,0.48
2023-04-27T01:53:53.443Z,0.51
2023-04-27T01:56:25.063Z,0.43
2023-04-27T01:58:57.727Z,0.50
2023-04-27T02:01:40.968Z,0.65
2023-04-27T02:04:13.378Z,0.55
2023-04-27T02:06:51.194Z,0.53
2023-04-27T02:09:27.778Z,0.43
2023-04-27T02:12:00.658Z,0.40
2023-04-27T02:14:33.804Z,0.33
2023-04-27T02:17:09.031Z,0.33
2023-04-27T02:19:41.249Z,0.32
2023-04-27T02:22:19.692Z,0.35
2023-04-27T02:25:05.767Z,0.32
2023-04-27T02:27:32.736Z,0.27
2023-04-27T02:30:14.970Z,0.29
2023-04-27T02:32:55.390Z,0.22
2023-04-27T02:35:33.687Z,0.18
2023-04-27T02:38:06.878Z,0.15
2023-04-27T02:40:41.089Z,0.13
2023-04-27T02:43:13.884Z,0.05
2023-04-27T02:45:49.119Z,0.08
2023-04-27T02:48:19.140Z,0.10
2023-04-27T02:50:51.895Z,0.03
2023-04-27T02:53:18.945Z,0.03
2023-04-27T02:55:54.139Z,-0.01
2023-04-27T02:58:21.473Z,-0.04
2023-04-27T03:00:59.805Z,-0.05
2023-04-27T03:03:32.650Z,-0.10
2023-04-27T03:06:04.438Z,-0.13
2023-04-27T03:08:44.027Z,-0.10
2023-04-27T03:11:24.626Z,-0.13
2023-04-27T03:14:02.052Z,-0.09
2023-04-27T03:16:29.911Z,-0.16
2023-04-27T03:18:59.152Z,-0.22
2023-04-27T03:21:31.297Z,-0.11
2023-04-27T03:24:03.674Z,-0.18
2023-04-27T03:26:39.296Z,-0.15
2023-04-27T03:29:12.031Z,-0.21
2023-04-27T03:31:44.909Z,-0.22
2023-04-27T03:34:14.857Z,-0.21
2023-04-27T03:36:57.570Z,-0.21
2023-04-27T03:39:34.864Z,-0.22
2023-04-27T03:42:12.902Z,-0.23
2023-04-27T03:44:50.915Z,-0.26
2023-04-27T03:47:25.898Z,-0.27
2023-04-27T03:50:13.951Z,-0.20
2023-04-27T03:52:43.882Z,-0.17
2023-04-27T03:55:19.498Z,-0.17
2023-04-27T03:57:46.884Z,-0.12
2023-04-27T04:00:18.512Z,-0.05
2023-04-27T04:02:52.932Z,-0.04
2023-04-27T04:05:30.599Z,-0.11
2023-04-27T04:08:06.415Z,-0.12
2023-04-27T04:10:44.484Z,-0.09
2023-04-27T04:13:14.039Z,-0.11
2023-04-27T04:15:49.239Z,-0.11
2023-04-27T04:18:25.069Z,-0.06
2023-04-27T04:20:57.663Z,0.05
2023-04-27T04:23:30.861Z,0.18
2023-04-27T04:26:05.840Z,0.19
2023-04-27T04:28:46.309Z,0.30
2023-04-27T04:31:18.762Z,0.36
2023-04-27T04:34:00.253Z,0.49
2023-04-27T04:36:38.562Z,0.52
2023-04-27T04:39:07.668Z,0.56
2023-04-27T04:41:38.842Z,0.77
2023-04-27T04:44:11.055Z,0.96
2023-04-27T04:46:43.138Z,0.98
2023-04-27T04:49:18.615Z,1.25
2023-04-27T04:51:56.933Z,1.44
2023-04-27T04:54:31.683Z,1.78
2023-04-27T04:57:04.713Z,2.08
2023-04-27T04:59:42.867Z,2.42
2023-04-27T05:02:20.885Z,2.78
2023-04-27T05:07:26.953Z,3.37
2023-04-27T05:09:54.094Z,3.50
2023-04-27T05:12:28.607Z,3.82
2023-04-27T05:15:01.153Z,4.24
2023-04-27T05:17:39.092Z,4.61
2023-04-27T05:20:15.965Z,5.04
2023-04-27T05:23:01.439Z,5.50
2023-04-27T05:25:40.766Z,6.11
2023-04-27T05:28:20.036Z,6.54
2023-04-27T05:30:57.167Z,6.89
2023-04-27T05:33:47.853Z,7.25
2023-04-27T05:36:23.299Z,7.72
2023-04-27T05:38:57.812Z,7.91
2023-04-27T05:41:36.173Z,8.19
2023-04-27T05:44:17.134Z,8.43
2023-04-27T05:46:56.311Z,8.46
2023-04-27T05:49:37.878Z,8.54
2023-04-27T05:52:17.860Z,8.53
2023-04-27T05:54:58.480Z,8.76
2023-04-27T05:57:42.366Z,8.96
2023-04-27T06:00:22.612Z,9.27
2023-04-27T06:03:00.374Z,9.49
2023-04-27T06:05:41.942Z,9.58
2023-04-27T06:08:25.304Z,9.53
2023-04-27T06:10:58.202Z,9.56
2023-04-27T06:13:30.505Z,9.93
2023-04-27T06:16:11.808Z,10.38
2023-04-27T06:18:50.446Z,10.47
2023-04-27T06:21:32.115Z,10.91
2023-04-27T06:24:19.228Z,11.28
2023-04-27T06:27:03.271Z,11.59
2023-04-27T06:29:36.016Z,12.09
2023-04-27T06:32:17.874Z,12.07
2023-04-27T06:35:01.018Z,12.00
2023-04-27T06:37:38.888Z,12.73
2023-04-27T06:40:12.082Z,12.60
2023-04-27T06:42:58.503Z,13.47
2023-04-27T06:45:44.796Z,13.86
2023-04-27T06:48:25.651Z,14.00
2023-04-27T06:51:08.147Z,13.99
2023-04-27T06:53:38.184Z,12.89
2023-04-27T06:56:23.643Z,13.18
2023-04-27T06:59:08.147Z,12.81
2023-04-27T07:01:40.883Z,13.27
2023-04-27T07:04:26.905Z,13.38
2023-04-27T07:07:09.603Z,13.40
2023-04-27T07:09:47.788Z,13.26
2023-04-27T07:12:23.647Z,13.20
2023-04-27T07:15:04.392Z,13.04
2023-04-27T07:17:44.751Z,12.58
2023-04-27T07:20:27.377Z,12.63
2023-04-27T07:23:09.473Z,12.79
2023-04-27T07:25:52.502Z,12.94
2023-04-27T07:28:30.733Z,12.65
2023-04-27T07:31:09.811Z,12.68
2023-04-27T07:33:48.078Z,12.93
2023-04-27T07:36:34.467Z,13.04
2023-04-27T07:39:16.948Z,13.16
2023-04-27T07:42:05.852Z,13.30
2023-04-27T07:44:44.277Z,13.15
2023-04-27T07:47:19.652Z,13.54
2023-04-27T07:50:01.002Z,13.67
2023-04-27T07:52:41.625Z,13.96
2023-04-27T07:55:31.853Z,14.07
2023-04-27T07:58:12.821Z,13.93
2023-04-27T08:00:56.184Z,14.00
2023-04-27T08:03:35.160Z,14.48
2023-04-27T08:06:08.306Z,14.98
2023-04-27T08:08:49.800Z,15.58
2023-04-27T08:11:19.666Z,16.00
2023-04-27T08:13:59.887Z,15.72
2023-04-27T08:16:33.145Z,15.07
2023-04-27T08:19:05.445Z,15.02
2023-04-27T08:21:47.288Z,14.75
2023-04-27T08:24:26.129Z,14.65
2023-04-27T08:27:11.807Z,14.53
2023-04-27T08:30:02.916Z,14.13
2023-04-27T08:32:44.658Z,14.03
2023-04-27T08:35:23.082Z,14.19
2023-04-27T08:38:09.649Z,13.64
2023-04-27T08:40:54.745Z,13.03
2023-04-27T08:43:45.233Z,13.41
2023-04-27T08:46:27.230Z,13.58
2023-04-27T08:49:16.509Z,13.58
2023-04-27T08:51:57.573Z,13.42
2023-04-27T08:54:36.666Z,12.98
2023-04-27T08:57:23.526Z,13.30
2023-04-27T09:00:23.533Z,12.91
2023-04-27T09:03:06.702Z,13.06
2023-04-27T09:06:03.424Z,13.58
2023-04-27T09:08:52.861Z,13.85
2023-04-27T09:11:41.554Z,13.80
2023-04-27T09:14:31.346Z,13.71
2023-04-27T09:17:18.044Z,14.11
2023-04-27T09:19:50.452Z,14.28
2023-04-27T09:22:45.225Z,14.29
2023-04-27T09:25:36.017Z,14.70
2023-04-27T09:28:16.846Z,14.20
2023-04-27T09:31:05.148Z,13.66
2023-04-27T09:33:48.824Z,13.97
2023-04-27T09:36:30.980Z,14.06
2023-04-27T09:39:12.560Z,13.96
2023-04-27T09:41:55.820Z,14.00
2023-04-27T09:44:43.767Z,14.26
2023-04-27T09:47:21.874Z,14.68
2023-04-27T09:50:07.139Z,14.26
2023-04-27T09:52:45.861Z,14.48
2023-04-27T09:55:41.936Z,14.71
2023-04-27T09:58:38.405Z,15.60
2023-04-27T10:01:24.265Z,16.08
2023-04-27T10:04:35.089Z,16.48
2023-04-27T10:07:13.823Z,16.49
2023-04-27T10:10:00.240Z,17.06
2023-04-27T10:12:41.650Z,16.91
2023-04-27T10:15:29.492Z,16.81
2023-04-27T10:18:11.545Z,15.73
2023-04-27T10:21:12.249Z,15.78
2023-04-27T10:23:57.368Z,15.60
2023-04-27T10:26:49.818Z,15.04
2023-04-27T10:29:40.363Z,14.51
2023-04-27T10:32:32.870Z,14.61
2023-04-27T10:35:22.410Z,14.85
2023-04-27T10:38:28.310Z,15.48
2023-04-27T10:41:12.613Z,15.11
2023-04-27T10:43:50.271Z,14.75
2023-04-27T10:46:28.942Z,14.94
2023-04-27T10:49:14.977Z,15.34
2023-04-27T10:52:05.251Z,14.83
2023-04-27T10:54:49.811Z,14.68
2023-04-27T10:57:31.542Z,14.50
2023-04-27T11:00:21.225Z,14.22
2023-04-27T11:03:00.794Z,14.19
2023-04-27T11:05:46.721Z,14.70
2023-04-27T11:08:31.831Z,14.86
2023-04-27T11:11:09.764Z,15.18
2023-04-27T11:13:49.538Z,15.06
2023-04-27T11:16:33.107Z,14.14
2023-04-27T11:19:14.153Z,13.83
2023-04-27T11:21:53.156Z,14.81
2023-04-27T11:24:29.383Z,15.41
2023-04-27T11:27:07.517Z,15.96
2023-04-27T11:29:51.815Z,16.38
2023-04-27T11:32:27.120Z,16.32
2023-04-27T11:35:07.474Z,16.76
2023-04-27T11:37:58.342Z,16.68
2023-04-27T11:40:45.557Z,16.20
2023-04-27T11:43:25.677Z,16.18
2023-04-27T11:46:17.913Z,15.48
2023-04-27T11:49:16.973Z,15.76
2023-04-27T11:51:59.252Z,16.39
2023-04-27T11:54:56.464Z,16.58
2023-04-27T11:57:36.168Z,16.07
2023-04-27T12:00:15.336Z,16.93
2023-04-27T12:03:04.934Z,16.67
2023-04-27T12:05:52.976Z,15.81
2023-04-27T12:08:31.168Z,15.86
2023-04-27T12:11:11.971Z,16.36
2023-04-27T12:14:04.288Z,17.04
2023-04-27T12:16:44.498Z,16.80
2023-04-27T12:19:34.798Z,17.40
2023-04-27T12:22:10.843Z,17.24
2023-04-27T12:24:48.596Z,17.56
2023-04-27T12:27:32.833Z,18.03
2023-04-27T12:30:14.630Z,17.91
2023-04-27T12:32:52.978Z,17.70
2023-04-27T12:35:32.101Z,17.97
2023-04-27T12:38:07.256Z,18.14
2023-04-27T12:40:42.897Z,18.72
2023-04-27T12:43:23.619Z,18.20
2023-04-27T12:45:58.913Z,18.21
2023-04-27T12:48:36.565Z,18.57
2023-04-27T12:51:17.741Z,18.58
2023-04-27T12:54:02.769Z,17.95
2023-04-27T12:56:44.098Z,17.02
2023-04-27T12:59:24.918Z,17.27
2023-04-27T13:02:06.130Z,17.34
2023-04-27T13:04:45.053Z,18.20
2023-04-27T13:07:23.348Z,18.22
2023-04-27T13:10:07.935Z,18.45
2023-04-27T13:12:42.463Z,18.61
2023-04-27T13:15:20.216Z,18.55
2023-04-27T13:18:00.396Z,17.71
2023-04-27T13:20:42.939Z,16.66
2023-04-27T13:23:20.564Z,16.33
2023-04-27T13:26:04.166Z,16.87
2023-04-27T13:28:39.162Z,17.04
2023-04-27T13:31:22.946Z,17.25
2023-04-27T13:33:58.767Z,17.81
2023-04-27T13:36:28.966Z,17.51
2023-04-27T13:39:12.054Z,17.42
2023-04-27T13:41:48.879Z,16.42
2023-04-27T13:44:29.639Z,15.99
2023-04-27T13:47:11.372Z,16.14
2023-04-27T13:49:49.147Z,16.41
2023-04-27T13:52:27.800Z,17.43
2023-04-27T13:55:03.931Z,18.68
2023-04-27T13:57:47.822Z,19.05
2023-04-27T14:00:45.695Z,19.10
2023-04-27T14:03:23.584Z,18.83
2023-04-27T14:06:01.929Z,18.89
2023-04-27T14:08:41.982Z,19.22
2023-04-27T14:11:23.469Z,19.56
2023-04-27T14:13:58.676Z,18.95
2023-04-27T14:16:39.964Z,18.86
2023-04-27T14:19:18.774Z,19.20
2023-04-27T14:21:59.611Z,18.47
2023-04-27T14:24:41.256Z,18.17
2023-04-27T14:27:19.806Z,18.02
2023-04-27T14:29:58.417Z,18.59
2023-04-27T14:32:45.341Z,18.54
2023-04-27T14:35:23.966Z,18.96
2023-04-27T14:38:11.323Z,19.81
2023-04-27T14:40:57.750Z,18.76
2023-04-27T14:43:40.447Z,19.08
2023-04-27T14:46:22.396Z,19.19
2023-04-27T14:49:07.762Z,19.04
2023-04-27T14:51:51.371Z,18.58
2023-04-27T14:54:29.644Z,17.58
2023-04-27T14:57:13.217Z,17.70
2023-04-27T14:59:55.761Z,16.92
2023-04-27T15:02:36.997Z,16.43
2023-04-27T15:05:17.783Z,16.21
2023-04-27T15:07:55.072Z,16.85
2023-04-27T15:10:35.521Z,16.69
2023-04-27T15:13:16.253Z,17.24
2023-04-27T15:15:47.630Z,17.58
2023-04-27T15:18:23.486Z,17.65
2023-04-27T15:21:04.375Z,17.45
2023-04-27T15:23:38.075Z,17.78
2023-04-27T15:26:23.446Z,17.69
2023-04-27T15:29:02.562Z,16.92
2023-04-27T15:31:43.552Z,17.60
2023-04-27T15:34:22.372Z,17.48
2023-04-27T15:37:02.858Z,17.62
2023-04-27T15:39:41.277Z,17.87
2023-04-27T15:42:16.637Z,17.98
2023-04-27T15:45:08.021Z,16.89
2023-04-27T15:47:41.703Z,17.35
2023-04-27T15:50:18.084Z,17.82
2023-04-27T15:53:05.152Z,18.08
2023-04-27T15:55:42.303Z,18.61
2023-04-27T15:58:20.034Z,18.51
2023-04-27T16:00:56.856Z,18.90
2023-04-27T16:03:33.511Z,19.68
2023-04-27T16:06:06.472Z,20.09
2023-04-27T16:08:49.694Z,20.25
2023-04-27T16:11:29.958Z,20.95
2023-04-27T16:14:08.214Z,21.33
2023-04-27T16:16:46.959Z,21.15
2023-04-27T16:19:30.487Z,21.82
2023-04-27T16:22:10.947Z,22.36
2023-04-27T16:24:43.582Z,21.96
2023-04-27T16:27:28.053Z,23.09
2023-04-27T16:30:06.939Z,23.42
2023-04-27T16:32:47.807Z,23.71
2023-04-27T16:35:19.897Z,23.86
2023-04-27T16:37:58.862Z,23.00
2023-04-27T16:40:32.274Z,23.77
2023-04-27T16:43:05.064Z,23.98
2023-04-27T16:45:47.108Z,22.27
2023-04-27T16:48:28.380Z,21.76
2023-04-27T16:51:13.623Z,21.51
2023-04-27T16:53:49.339Z,20.27
2023-04-27T16:56:33.832Z,19.69
2023-04-27T16:59:07.694Z,19.26
2023-04-27T17:01:40.554Z,18.34
2023-04-27T17:04:19.026Z,17.74
2023-04-27T17:07:02.552Z,16.74
2023-04-27T17:09:45.702Z,16.02
2023-04-27T17:12:21.130Z,15.68
2023-04-27T17:15:02.164Z,15.39
2023-04-27T17:17:46.896Z,14.95
2023-04-27T17:20:22.893Z,14.64
2023-04-27T17:23:08.912Z,14.33
2023-04-27T17:25:51.001Z,14.33
2023-04-27T17:28:29.914Z,14.05
2023-04-27T17:31:05.477Z,13.52
2023-04-27T17:33:46.737Z,13.36
2023-04-27T17:36:19.367Z,13.18
2023-04-27T17:39:01.472Z,12.87
2023-04-27T17:41:37.192Z,12.77
2023-04-27T17:44:12.101Z,12.54
2023-04-27T17:46:54.958Z,12.29
2023-04-27T17:49:33.693Z,12.00
2023-04-27T17:52:11.331Z,11.81
2023-04-27T17:54:41.383Z,11.62
2023-04-27T17:57:22.236Z,11.23
2023-04-27T18:00:06.427Z,11.01
2023-04-27T18:02:52.046Z,10.87
2023-04-27T18:05:24.282Z,10.59
2023-04-27T18:08:06.790Z,10.41
2023-04-27T18:10:41.980Z,10.30
2023-04-27T18:13:17.321Z,10.23
2023-04-27T18:15:55.985Z,10.04
2023-04-27T18:18:36.385Z,9.85
2023-04-27T18:21:26.756Z,9.77
2023-04-27T18:24:05.587Z,9.47
2023-04-27T18:26:41.600Z,9.25
2023-04-27T18:29:24.207Z,9.05
2023-04-27T18:31:56.694Z,8.85
2023-04-27T18:34:39.845Z,8.83
2023-04-27T18:37:18.218Z,8.65
2023-04-27T18:39:55.847Z,8.59
2023-04-27T18:42:46.249Z,8.44
2023-04-27T18:45:29.012Z,8.44
2023-04-27T18:48:07.944Z,8.30
2023-04-27T18:50:40.766Z,8.21
2023-04-27T18:53:20.606Z,8.12
2023-04-27T18:55:56.549Z,8.04
2023-04-27T18:58:40.328Z,7.76
2023-04-27T19:01:20.017Z,7.63
2023-04-27T19:04:02.554Z,7.45
2023-04-27T19:06:38.557Z,7.35
2023-04-27T19:09:19.346Z,7.21
2023-04-27T19:12:05.680Z,7.11
2023-04-27T19:14:44.545Z,7.12
2023-04-27T19:17:26.281Z,6.90
2023-04-27T19:20:08.843Z,6.86
2023-04-27T19:22:52.853Z,6.79
2023-04-27T19:25:34.773Z,6.60
2023-04-27T19:28:13.245Z,6.68
2023-04-27T19:30:45.617Z,6.56
2023-04-27T19:33:20.902Z,6.40
2023-04-27T19:35:58.870Z,6.30
2023-04-27T19:38:42.094Z,6.23
2023-04-27T19:41:24.793Z,6.09
2023-04-27T19:44:05.528Z,6.05
2023-04-27T19:46:42.645Z,5.99
2023-04-27T19:49:20.922Z,5.94
2023-04-27T19:51:53.340Z,5.92
2023-04-27T19:54:33.894Z,5.82
2023-04-27T19:57:21.346Z,5.76
2023-04-27T19:59:59.145Z,5.63
2023-04-27T20:02:37.598Z,5.61
2023-04-27T20:05:22.263Z,5.55
2023-04-27T20:08:03.401Z,5.48
2023-04-27T20:10:44.000Z,5.40
2023-04-27T20:13:21.198Z,5.42
2023-04-27T20:15:58.348Z,5.32
2023-04-27T20:18:35.339Z,5.30
2023-04-27T20:21:09.344Z,5.23
2023-04-27T20:23:44.251Z,5.21
2023-04-27T20:26:24.619Z,5.25
2023-04-27T20:28:56.911Z,5.10
2023-04-27T20:31:32.877Z,5.03
2023-04-27T20:34:14.770Z,5.06
2023-04-27T20:36:58.077Z,4.82
2023-04-27T20:39:30.200Z,4.70
2023-04-27T20:42:08.573Z,4.69
2023-04-27T20:44:49.691Z,4.65
2023-04-27T20:47:24.874Z,4.66
2023-04-27T20:50:02.588Z,4.54
2023-04-27T20:52:41.796Z,4.51
2023-04-27T20:55:22.260Z,4.46
2023-04-27T20:57:58.401Z,4.37
2023-04-27T21:00:42.607Z,4.28
2023-04-27T21:03:13.125Z,4.26
2023-04-27T21:05:45.562Z,4.17
2023-04-27T21:08:23.204Z,4.07
2023-04-27T21:11:01.491Z,4.04
2023-04-27T21:13:36.857Z,3.98
2023-04-27T21:16:12.026Z,3.96
2023-04-27T21:18:57.106Z,3.85
2023-04-27T21:21:35.112Z,3.75
2023-04-27T21:24:13.488Z,3.68
2023-04-27T21:26:48.992Z,3.72
2023-04-27T21:29:18.784Z,3.61
2023-04-27T21:32:00.451Z,3.70
2023-04-27T21:34:46.940Z,3.59
2023-04-27T21:37:24.778Z,3.54
2023-04-27T21:40:02.604Z,3.59
2023-04-27T21:42:44.073Z,3.58
2023-04-27T21:45:27.318Z,3.45
2023-04-27T21:48:09.666Z,3.39
2023-04-27T21:50:42.117Z,3.35
2023-04-27T21:53:15.997Z,3.32
2023-04-27T21:55:57.806Z,3.38
2023-04-27T21:58:36.446Z,3.34
2023-04-27T22:01:15.356Z,3.28
2023-04-27T22:03:54.149Z,3.24
2023-04-27T22:06:35.407Z,3.19
2023-04-27T22:09:12.634Z,3.09
2023-04-27T22:11:53.890Z,3.05
2023-04-27T22:14:32.627Z,2.97
2023-04-27T22:17:12.674Z,2.89
2023-04-27T22:19:53.786Z,2.84
2023-04-27T22:22:32.349Z,2.79
2023-04-27T22:25:14.368Z,2.81
2023-04-27T22:27:52.763Z,2.75
2023-04-27T22:30:36.794Z,2.82
2023-04-27T22:33:14.733Z,2.74
2023-04-27T22:35:44.875Z,2.62
2023-04-27T22:38:14.480Z,2.55
2023-04-27T22:40:54.746Z,2.62
2023-04-27T22:43:27.907Z,2.65
2023-04-27T22:46:08.190Z,2.68
2023-04-27T22:48:46.386Z,2.63
2023-04-27T22:51:27.868Z,2.57
2023-04-27T22:54:06.327Z,2.58
2023-04-27T22:56:46.100Z,2.50
2023-04-27T22:59:23.185Z,2.43
2023-04-27T23:02:06.550Z,2.45
2023-04-27T23:04:44.781Z,2.41
2023-04-27T23:07:23.434Z,2.38
2023-04-27T23:10:02.873Z,2.35
2023-04-27T23:12:40.804Z,2.33
2023-04-27T23:15:22.435Z,2.31
2023-04-27T23:18:01.684Z,2.28
2023-04-27T23:20:36.951Z,2.22
2023-04-27T23:23:06.747Z,2.20
2023-04-27T23:25:44.445Z,2.20
2023-04-27T23:28:20.914Z,2.18
2023-04-27T23:30:57.696Z,2.17
2023-04-27T23:33:38.926Z,2.10
2023-04-27T23:36:17.328Z,2.04
2023-04-27T23:38:52.364Z,2.03
2023-04-27T23:41:30.051Z,2.01
2023-04-27T23:44:05.480Z,1.97
2023-04-27T23:46:46.718Z,1.86
2023-04-27T23:49:21.944Z,1.90
2023-04-27T23:52:03.722Z,1.91
2023-04-27T23:54:33.758Z,1.91
2023-04-27T23:57:11.705Z,1.89
2023-04-27T23:59:50.280Z,1.80
